Time;durP1;ratioP1;P1;durP2;ratioP2;P2;SDS_P1;SDS_P2;PMS_P1;PMS_P2;Temp;Humidity;BMP_temperature;BMP_pressure;BME280_temperature;BME280_humidity;BME280_pressure;Samples;Min_cycle;Max_cycle;Signal;HPM_P1;HPM_P2
2022/03/27 00:01:15;;;;;;;34.70;15.37;;;8.70;60.90;;;;;;5090560;28;21003;-75
2022/03/27 00:03:41;;;;;;;32.27;12.97;;;8.70;61.30;;;;;;5092876;28;20486;-73
2022/03/27 00:06:07;;;;;;;27.90;12.17;;;8.80;61.70;;;;;;5092388;28;20520;-73
2022/03/27 00:08:32;;;;;;;30.80;12.70;;;8.70;61.20;;;;;;5093365;28;20195;-74
2022/03/27 00:13:43;;;;;;;32.40;12.13;;;8.60;61.50;;;;;;5096299;28;20243;-73
2022/03/27 00:16:09;;;;;;;23.43;12.53;;;8.60;61.70;;;;;;5093782;28;20424;-74
2022/03/27 00:18:36;;;;;;;32.87;12.63;;;8.50;61.90;;;;;;5096827;28;20187;-74
2022/03/27 00:21:03;;;;;;;29.00;12.00;;;8.50;61.90;;;;;;5097513;28;20417;-73
2022/03/27 00:23:29;;;;;;;32.23;13.20;;;8.50;61.90;;;;;;5095997;28;20451;-73
2022/03/27 00:25:55;;;;;;;28.57;11.60;;;8.50;61.90;;;;;;5094600;28;20512;-74
2022/03/27 00:28:21;;;;;;;28.57;13.00;;;8.50;62.30;;;;;;5094295;28;21053;-74
2022/03/27 00:30:47;;;;;;;31.63;14.20;;;8.50;62.20;;;;;;5094098;28;20998;-73
2022/03/27 00:33:14;;;;;;;29.00;13.33;;;8.40;62.30;;;;;;5094285;28;20203;-74
2022/03/27 00:35:40;;;;;;;27.17;11.80;;;8.30;62.60;;;;;;5092941;28;20455;-74
2022/03/27 00:38:07;;;;;;;25.43;11.93;;;8.30;63.10;;;;;;5079930;28;20490;-74
2022/03/27 00:40:34;;;;;;;27.23;12.50;;;8.30;63.20;;;;;;5092152;28;20830;-73
2022/03/27 00:42:59;;;;;;;30.27;13.53;;;8.30;63.40;;;;;;5092322;28;20433;-74
2022/03/27 00:45:25;;;;;;;33.03;12.40;;;8.30;63.50;;;;;;5092477;28;20436;-73
2022/03/27 00:47:51;;;;;;;30.00;12.70;;;8.20;63.50;;;;;;5092090;28;20279;-73
2022/03/27 00:50:17;;;;;;;27.80;11.80;;;8.20;63.70;;;;;;5092100;28;20460;-75
2022/03/27 00:52:43;;;;;;;27.47;13.13;;;8.20;63.70;;;;;;5092316;28;20222;-73
2022/03/27 00:55:08;;;;;;;35.03;13.03;;;8.20;63.70;;;;;;5092169;28;20222;-75
2022/03/27 00:57:35;;;;;;;32.03;12.73;;;8.20;63.50;;;;;;5091866;28;20184;-73
2022/03/27 01:00:00;;;;;;;26.33;11.70;;;8.20;63.80;;;;;;5091821;28;20983;-73
2022/03/27 01:02:26;;;;;;;29.67;12.70;;;8.10;64.10;;;;;;5071902;28;20452;-75
2022/03/27 01:04:55;;;;;;;29.93;12.70;;;8.00;64.50;;;;;;5078115;28;20293;-75
2022/03/27 01:07:21;;;;;;;37.60;13.73;;;8.00;64.50;;;;;;5091292;28;20272;-73
2022/03/27 01:09:47;;;;;;;27.90;12.80;;;8.00;64.70;;;;;;5091381;28;20425;-74
2022/03/27 01:12:21;;;;;;;27.53;11.57;;;8.00;65.00;;;;;;5091474;28;20733;-74
2022/03/27 01:14:48;;;;;;;22.53;10.60;;;8.00;65.60;;;;;;5091399;28;20420;-74
2022/03/27 01:17:16;;;;;;;25.57;11.53;;;8.10;65.80;;;;;;5079557;28;20437;-76
2022/03/27 01:19:45;;;;;;;32.83;12.60;;;8.10;66.30;;;;;;5091279;28;20425;-75
2022/03/27 01:22:11;;;;;;;32.80;12.30;;;8.10;66.00;;;;;;5091466;28;20453;-74
2022/03/27 01:24:37;;;;;;;35.33;11.93;;;8.00;66.00;;;;;;5091684;28;20797;-74
2022/03/27 01:27:03;;;;;;;30.93;12.10;;;7.90;66.00;;;;;;5091229;28;20456;-73
2022/03/27 01:29:29;;;;;;;29.50;11.87;;;7.90;66.30;;;;;;5091874;28;20179;-74
2022/03/27 01:31:56;;;;;;;25.80;13.20;;;7.90;66.70;;;;;;5093439;28;20448;-73
2022/03/27 01:34:21;;;;;;;34.50;13.67;;;7.90;66.10;;;;;;5095897;28;20424;-75
2022/03/27 01:36:47;;;;;;;32.30;12.60;;;7.90;66.00;;;;;;5096056;28;20421;-74
2022/03/27 01:39:15;;;;;;;33.20;15.93;;;7.90;65.30;;;;;;5096854;28;20242;-74
2022/03/27 01:41:42;;;;;;;34.37;13.13;;;7.80;65.60;;;;;;5097518;28;20296;-74
2022/03/27 01:44:11;;;;;;;27.00;12.47;;;7.70;65.70;;;;;;5074265;28;20433;-74
2022/03/27 01:46:38;;;;;;;38.27;12.90;;;7.70;65.70;;;;;;5091808;28;20417;-74
2022/03/27 01:49:07;;;;;;;28.20;12.20;;;7.70;66.00;;;;;;5091353;28;20464;-76
2022/03/27 01:51:34;;;;;;;26.77;12.57;;;7.60;66.10;;;;;;5092061;28;20855;-74
2022/03/27 01:54:00;;;;;;;26.10;11.23;;;7.50;66.60;;;;;;5092189;28;20444;-73
2022/03/27 01:56:26;;;;;;;30.63;13.30;;;7.50;66.70;;;;;;5073097;28;20421;-73
2022/03/27 01:58:53;;;;;;;30.30;12.93;;;7.50;66.70;;;;;;5092139;28;20494;-74
2022/03/27 02:01:21;;;;;;;26.13;12.77;;;7.50;67.20;;;;;;5091880;28;20437;-75
2022/03/27 02:03:48;;;;;;;27.60;12.50;;;7.40;67.30;;;;;;5093246;28;20433;-74
2022/03/27 02:06:15;;;;;;;24.60;12.07;;;7.40;67.50;;;;;;5093463;28;20445;-74
2022/03/27 02:08:42;;;;;;;30.43;13.27;;;7.40;67.50;;;;;;5093247;28;20468;-74
2022/03/27 02:11:08;;;;;;;30.70;12.10;;;7.40;67.50;;;;;;5078056;28;20422;-74
2022/03/27 02:13:35;;;;;;;30.57;12.10;;;7.30;67.20;;;;;;5091784;28;20453;-73
2022/03/27 02:16:03;;;;;;;30.93;12.60;;;7.30;67.30;;;;;;5077006;28;20421;-73
2022/03/27 02:18:30;;;;;;;28.43;13.67;;;7.20;67.30;;;;;;5091301;28;20516;-74
2022/03/27 02:20:57;;;;;;;31.87;12.03;;;7.10;67.70;;;;;;5091338;28;20425;-74
2022/03/27 02:23:24;;;;;;;30.40;13.17;;;7.10;68.00;;;;;;5085446;28;20576;-73
2022/03/27 02:25:51;;;;;;;33.97;13.70;;;7.10;68.20;;;;;;5091598;28;20433;-75
2022/03/27 02:28:17;;;;;;;30.13;11.80;;;7.10;68.50;;;;;;5090992;28;20460;-74
2022/03/27 02:30:43;;;;;;;27.83;12.20;;;7.00;68.60;;;;;;5091257;28;20420;-74
2022/03/27 02:33:09;;;;;;;33.63;12.87;;;7.00;69.10;;;;;;5090871;28;20452;-76
2022/03/27 02:35:36;;;;;;;30.60;12.20;;;6.90;69.10;;;;;;5093949;28;20410;-74
2022/03/27 02:38:06;;;;;;;30.80;11.97;;;6.90;69.40;;;;;;5092705;28;20432;-71
2022/03/27 02:40:37;;;;;;;29.23;12.90;;;6.90;69.20;;;;;;5093272;28;20460;-75
2022/03/27 02:43:04;;;;;;;38.53;14.20;;;6.80;69.50;;;;;;5082906;28;20819;-74
2022/03/27 02:45:30;;;;;;;28.70;11.93;;;6.80;69.40;;;;;;5096868;28;20424;-74
2022/03/27 02:47:57;;;;;;;27.03;13.03;;;6.80;69.10;;;;;;5102711;28;20506;-74
2022/03/27 02:50:24;;;;;;;28.37;13.17;;;6.80;69.20;;;;;;5101464;28;20908;-75
2022/03/27 02:52:50;;;;;;;29.80;11.93;;;6.80;69.40;;;;;;5096540;28;20456;-74
2022/03/27 02:55:16;;;;;;;27.77;12.40;;;6.80;69.10;;;;;;5101382;28;20417;-73
2022/03/27 02:57:42;;;;;;;25.60;12.40;;;6.80;69.20;;;;;;5078601;28;20421;-74
2022/03/27 03:00:09;;;;;;;26.73;12.40;;;6.80;69.50;;;;;;5095018;28;20413;-74
2022/03/27 03:02:35;;;;;;;29.90;12.53;;;6.80;69.70;;;;;;5095830;28;20528;-73
2022/03/27 03:05:02;;;;;;;29.17;12.50;;;6.70;69.90;;;;;;5096819;28;20494;-74
2022/03/27 03:07:29;;;;;;;32.80;13.60;;;6.70;70.10;;;;;;5095965;28;20453;-75
2022/03/27 03:09:55;;;;;;;36.30;13.63;;;6.70;70.20;;;;;;5098791;28;20429;-72
2022/03/27 03:12:21;;;;;;;36.57;14.87;;;6.60;70.20;;;;;;5098872;28;20433;-75
2022/03/27 03:14:47;;;;;;;29.90;12.63;;;6.60;70.10;;;;;;5097910;28;20258;-74
2022/03/27 03:17:13;;;;;;;28.10;12.23;;;6.70;70.10;;;;;;5092108;28;20445;-75
2022/03/27 03:19:39;;;;;;;32.07;12.53;;;6.50;70.50;;;;;;5078922;28;20429;-75
2022/03/27 03:22:07;;;;;;;30.60;12.40;;;6.50;70.70;;;;;;5090228;28;20494;-74
2022/03/27 03:24:33;;;;;;;26.47;11.73;;;6.50;70.80;;;;;;5091462;28;20462;-74
2022/03/27 03:26:59;;;;;;;27.10;13.30;;;6.50;70.80;;;;;;5072771;28;20449;-74
2022/03/27 03:29:25;;;;;;;36.10;13.00;;;6.40;71.00;;;;;;5079388;28;20436;-74
2022/03/27 03:31:51;;;;;;;33.03;15.00;;;6.40;71.30;;;;;;5091103;28;20464;-73
2022/03/27 03:34:17;;;;;;;27.47;13.27;;;6.30;71.40;;;;;;5091186;28;20175;-73
2022/03/27 03:36:43;;;;;;;33.93;14.20;;;6.30;71.70;;;;;;5093494;28;20546;-74
2022/03/27 03:39:10;;;;;;;32.23;13.80;;;6.30;71.70;;;;;;5095158;28;20501;-74
2022/03/27 03:41:36;;;;;;;32.77;12.87;;;6.30;71.60;;;;;;5094535;28;20420;-75
2022/03/27 03:44:01;;;;;;;22.90;11.70;;;6.30;71.40;;;;;;5091208;28;20493;-73
2022/03/27 03:46:27;;;;;;;30.33;12.00;;;6.30;71.30;;;;;;5094456;28;20516;-74
2022/03/27 03:48:53;;;;;;;27.43;12.00;;;6.30;71.30;;;;;;5094574;28;20264;-74
2022/03/27 03:51:19;;;;;;;35.60;12.97;;;6.20;71.40;;;;;;5091888;28;20186;-74
2022/03/27 03:53:45;;;;;;;29.20;12.20;;;6.20;71.60;;;;;;5073303;28;20195;-74
2022/03/27 03:56:13;;;;;;;28.47;12.77;;;6.20;71.70;;;;;;5090631;28;20417;-74
2022/03/27 03:58:39;;;;;;;30.87;14.40;;;6.20;71.70;;;;;;5090855;28;20179;-73
2022/03/27 04:01:04;;;;;;;30.03;12.63;;;6.10;72.10;;;;;;5091144;28;20447;-74
2022/03/27 04:03:31;;;;;;;33.53;12.53;;;6.10;72.40;;;;;;5090770;28;20233;-72
2022/03/27 04:05:57;;;;;;;27.03;13.00;;;6.10;72.60;;;;;;5090980;28;20187;-72
2022/03/27 04:08:22;;;;;;;31.30;12.60;;;6.10;72.60;;;;;;5090327;28;20475;-73
2022/03/27 04:10:48;;;;;;;29.57;12.73;;;6.10;72.40;;;;;;5073488;28;20175;-71
2022/03/27 04:13:14;;;;;;;33.60;13.20;;;6.10;72.60;;;;;;5073565;28;20200;-75
2022/03/27 04:15:40;;;;;;;31.23;11.80;;;6.10;72.60;;;;;;5090983;28;20413;-74
2022/03/27 04:18:07;;;;;;;22.40;11.73;;;6.10;72.60;;;;;;5074462;28;20413;-73
2022/03/27 04:20:37;;;;;;;33.03;12.70;;;6.10;72.60;;;;;;5090422;28;20507;-74
2022/03/27 04:23:02;;;;;;;28.93;11.30;;;6.10;72.40;;;;;;5075319;28;20533;-72
2022/03/27 04:25:29;;;;;;;34.13;13.03;;;6.00;72.30;;;;;;5090803;28;20857;-74
2022/03/27 04:27:54;;;;;;;32.80;12.63;;;6.10;72.10;;;;;;5090922;28;20232;-74
2022/03/27 04:30:20;;;;;;;36.43;12.93;;;6.10;72.30;;;;;;5091354;28;20409;-74
2022/03/27 04:32:47;;;;;;;30.97;13.70;;;6.00;72.40;;;;;;5093911;28;20199;-72
2022/03/27 04:35:14;;;;;;;28.73;12.17;;;6.00;72.70;;;;;;5095534;28;20424;-74
2022/03/27 04:37:41;;;;;;;35.13;13.10;;;6.00;72.90;;;;;;5095643;28;20433;-73
2022/03/27 04:40:09;;;;;;;37.47;13.57;;;6.00;73.00;;;;;;5094500;28;20491;-73
2022/03/27 04:42:34;;;;;;;28.53;11.60;;;6.00;73.20;;;;;;5095191;28;20451;-73
2022/03/27 04:45:00;;;;;;;37.20;13.00;;;5.90;73.50;;;;;;5097011;28;20421;-73
2022/03/27 04:47:26;;;;;;;29.60;12.53;;;5.90;73.70;;;;;;5089967;28;20219;-76
2022/03/27 04:49:52;;;;;;;27.07;12.00;;;5.90;73.90;;;;;;5103087;28;20206;-75
2022/03/27 04:52:18;;;;;;;35.20;13.00;;;6.00;74.20;;;;;;5102773;28;20207;-76
2022/03/27 04:54:44;;;;;;;29.80;12.20;;;6.00;74.20;;;;;;5104097;28;20421;-76
2022/03/27 04:57:10;;;;;;;32.53;12.27;;;6.00;74.20;;;;;;5103291;28;20203;-75
2022/03/27 04:59:36;;;;;;;29.43;12.80;;;6.00;74.30;;;;;;5098089;28;20186;-75
2022/03/27 05:02:02;;;;;;;29.53;11.10;;;5.90;74.20;;;;;;5083564;28;20946;-74
2022/03/27 05:04:28;;;;;;;28.90;12.17;;;5.80;74.00;;;;;;5099845;28;20183;-75
2022/03/27 05:06:54;;;;;;;34.17;14.07;;;5.70;74.20;;;;;;5099160;28;20417;-75
2022/03/27 05:09:20;;;;;;;30.67;13.70;;;5.70;74.30;;;;;;5099801;28;20440;-73
2022/03/27 05:11:47;;;;;;;38.00;13.30;;;5.70;74.60;;;;;;5102245;28;20421;-76
2022/03/27 05:14:12;;;;;;;31.17;13.60;;;5.60;74.90;;;;;;5108948;28;20183;-75
2022/03/27 05:16:38;;;;;;;24.43;12.30;;;5.60;75.10;;;;;;5113522;28;20416;-76
2022/03/27 05:19:04;;;;;;;31.27;12.43;;;5.60;75.20;;;;;;5114460;28;20413;-75
2022/03/27 05:21:31;;;;;;;32.37;12.70;;;5.60;75.40;;;;;;5101230;28;20454;-74
2022/03/27 05:23:58;;;;;;;29.10;13.00;;;5.60;75.40;;;;;;5095955;28;20804;-75
2022/03/27 05:26:25;;;;;;;29.30;12.00;;;5.60;75.40;;;;;;5068824;28;20830;-76
2022/03/27 05:28:51;;;;;;;26.90;11.63;;;5.70;75.50;;;;;;5093916;28;21002;-74
2022/03/27 05:31:17;;;;;;;25.57;11.93;;;5.70;75.50;;;;;;5094099;28;20428;-75
2022/03/27 05:33:43;;;;;;;27.10;12.80;;;5.70;75.50;;;;;;5092962;28;20201;-75
2022/03/27 05:36:10;;;;;;;28.57;13.93;;;5.70;75.10;;;;;;5091689;28;20433;-74
2022/03/27 05:38:40;;;;;;;32.53;13.50;;;5.70;74.90;;;;;;5092372;28;20961;-74
2022/03/27 05:41:07;;;;;;;35.40;14.20;;;5.70;75.10;;;;;;5094547;28;20421;-73
2022/03/27 05:43:33;;;;;;;32.23;12.30;;;5.70;75.50;;;;;;5099374;28;20429;-74
2022/03/27 05:45:59;;;;;;;55.17;15.07;;;5.80;75.20;;;;;;5099968;28;20425;-74
2022/03/27 05:48:25;;;;;;;35.67;12.57;;;5.70;75.10;;;;;;5100523;28;20488;-73
2022/03/27 05:50:51;;;;;;;27.70;12.00;;;5.80;75.10;;;;;;5099359;28;20201;-74
2022/03/27 05:53:17;;;;;;;31.57;12.10;;;5.80;75.10;;;;;;5096708;28;20203;-73
2022/03/27 05:55:43;;;;;;;31.20;12.37;;;5.90;75.10;;;;;;5096821;28;20225;-73
2022/03/27 05:58:08;;;;;;;26.40;12.10;;;5.90;74.50;;;;;;5096402;28;20425;-74
2022/03/27 06:00:34;;;;;;;29.20;12.03;;;5.80;74.20;;;;;;5097582;28;20423;-74
2022/03/27 06:03:01;;;;;;;29.43;14.03;;;5.70;74.30;;;;;;5097986;28;20267;-74
2022/03/27 06:05:26;;;;;;;31.73;12.60;;;5.70;74.60;;;;;;5098266;28;20899;-74
2022/03/27 06:07:57;;;;;;;32.83;13.40;;;5.60;74.80;;;;;;5096167;28;20457;-75
2022/03/27 06:10:25;;;;;;;28.60;12.73;;;5.60;74.90;;;;;;5096587;28;20182;-74
2022/03/27 06:12:52;;;;;;;29.60;12.47;;;5.60;75.10;;;;;;5093439;28;20437;-75
2022/03/27 06:15:18;;;;;;;27.40;12.87;;;5.60;75.10;;;;;;5093725;28;20441;-74
2022/03/27 06:17:46;;;;;;;32.03;12.10;;;5.70;74.80;;;;;;5093397;28;20421;-74
2022/03/27 06:20:18;;;;;;;37.90;14.27;;;5.70;74.50;;;;;;5094814;28;20804;-73
2022/03/27 06:22:44;;;;;;;40.20;13.40;;;5.80;74.50;;;;;;5089782;28;20433;-73
2022/03/27 06:25:17;;;;;;;34.73;14.60;;;5.80;74.30;;;;;;5096535;28;20409;-75
2022/03/27 06:27:44;;;;;;;32.03;14.30;;;5.90;74.90;;;;;;5096473;28;20802;-74
2022/03/27 06:30:13;;;;;;;30.17;13.17;;;6.00;74.60;;;;;;5095875;28;20422;-74
2022/03/27 06:32:39;;;;;;;29.53;12.70;;;6.10;74.50;;;;;;5096781;28;20452;-74
2022/03/27 06:35:06;;;;;;;41.90;15.13;;;6.20;74.20;;;;;;5097932;28;20420;-72
2022/03/27 06:37:33;;;;;;;35.80;14.30;;;6.20;74.20;;;;;;5099157;28;20431;-74
2022/03/27 06:39:59;;;;;;;37.50;14.47;;;6.30;74.20;;;;;;5098684;28;20459;-73
2022/03/27 06:42:26;;;;;;;38.93;15.17;;;6.40;73.90;;;;;;5098723;28;20429;-73
2022/03/27 06:44:54;;;;;;;36.10;13.20;;;6.40;73.60;;;;;;5098805;28;20417;-73
2022/03/27 06:47:20;;;;;;;29.93;13.43;;;6.50;73.30;;;;;;5100051;28;20460;-73
2022/03/27 06:49:47;;;;;;;39.50;14.00;;;6.60;73.00;;;;;;5100740;28;20437;-73
2022/03/27 06:52:13;;;;;;;40.27;14.17;;;6.70;72.60;;;;;;5099296;28;20429;-72
2022/03/27 06:54:39;;;;;;;34.17;13.73;;;6.70;72.10;;;;;;5098894;28;20988;-73
2022/03/27 06:57:05;;;;;;;39.50;15.20;;;6.70;72.10;;;;;;5096164;28;20429;-72
2022/03/27 07:05:00;;;;;;;34.43;13.63;;;7.00;71.40;;;;;;5096148;28;20490;-76
2022/03/27 07:07:26;;;;;;;33.47;14.33;;;7.10;71.00;;;;;;5075301;28;20455;-75
2022/03/27 07:09:51;;;;;;;36.30;17.17;;;7.20;70.70;;;;;;5093392;28;20425;-73
2022/03/27 07:12:17;;;;;;;29.20;14.10;;;7.20;70.10;;;;;;5074443;28;20191;-74
2022/03/27 07:14:43;;;;;;;34.80;14.37;;;7.20;69.80;;;;;;5092773;28;20365;-74
2022/03/27 07:17:08;;;;;;;32.80;14.07;;;7.30;69.50;;;;;;5091580;28;20646;-75
2022/03/27 07:19:35;;;;;;;33.40;15.00;;;7.30;69.40;;;;;;5092069;28;20179;-74
2022/03/27 07:22:01;;;;;;;38.67;15.50;;;7.40;68.80;;;;;;5091242;28;20295;-74
2022/03/27 07:24:28;;;;;;;35.67;15.10;;;7.50;69.10;;;;;;5092612;28;20417;-75
2022/03/27 07:26:54;;;;;;;29.43;13.70;;;7.60;69.10;;;;;;5092027;28;20500;-74
2022/03/27 07:29:20;;;;;;;34.20;14.30;;;7.70;68.30;;;;;;5093153;28;20506;-73
2022/03/27 07:31:48;;;;;;;32.90;15.43;;;7.90;67.90;;;;;;5095043;28;20183;-74
2022/03/27 07:34:16;;;;;;;34.47;15.40;;;8.00;67.50;;;;;;5095186;28;20183;-75
2022/03/27 07:36:42;;;;;;;30.93;14.60;;;8.10;67.50;;;;;;5095649;28;20923;-75
2022/03/27 07:39:09;;;;;;;28.33;14.97;;;8.20;66.90;;;;;;5095874;28;20436;-74
2022/03/27 07:41:35;;;;;;;40.37;16.73;;;8.30;66.90;;;;;;5095420;28;20500;-74
2022/03/27 07:44:01;;;;;;;34.60;16.87;;;8.40;66.40;;;;;;5094588;28;20464;-74
2022/03/27 07:46:27;;;;;;;36.30;16.63;;;8.50;66.30;;;;;;5095935;28;20872;-74
2022/03/27 07:48:52;;;;;;;43.70;18.33;;;8.60;66.30;;;;;;5094720;28;20471;-74
2022/03/27 07:51:18;;;;;;;47.33;18.43;;;8.70;66.00;;;;;;5096519;28;20453;-73
2022/03/27 07:53:44;;;;;;;38.30;18.10;;;8.80;65.30;;;;;;5092695;28;20635;-75
2022/03/27 07:56:10;;;;;;;38.50;17.90;;;8.90;65.30;;;;;;5091419;28;20222;-74
2022/03/27 07:58:36;;;;;;;34.73;17.40;;;9.00;64.70;;;;;;5091291;28;20274;-76
2022/03/27 08:01:03;;;;;;;45.50;19.63;;;9.10;64.40;;;;;;5073073;28;20218;-74
2022/03/27 08:03:30;;;;;;;39.93;18.10;;;9.20;64.10;;;;;;5076719;28;20495;-74
2022/03/27 08:05:56;;;;;;;35.40;17.10;;;9.20;64.10;;;;;;5091585;28;20866;-74
2022/03/27 08:08:22;;;;;;;39.53;16.83;;;9.30;63.80;;;;;;5093391;28;20215;-75
2022/03/27 08:10:47;;;;;;;35.63;17.33;;;9.40;63.70;;;;;;5095959;28;20183;-75
2022/03/27 08:13:13;;;;;;;39.57;18.30;;;9.50;63.20;;;;;;5095423;28;20202;-75
2022/03/27 08:15:39;;;;;;;38.10;16.67;;;9.50;63.70;;;;;;5095925;28;20270;-73
2022/03/27 08:18:05;;;;;;;42.30;19.50;;;9.60;63.40;;;;;;5095454;28;20202;-74
2022/03/27 08:20:31;;;;;;;37.30;18.13;;;9.70;62.80;;;;;;5077591;28;20205;-72
2022/03/27 08:22:58;;;;;;;45.67;18.60;;;9.80;62.90;;;;;;5096330;28;20448;-74
2022/03/27 08:28:10;;;;;;;44.03;18.07;;;10.00;62.30;;;;;;5094568;28;20561;-75
2022/03/27 08:30:36;;;;;;;40.57;16.87;;;10.10;61.50;;;;;;5095169;28;20424;-75
2022/03/27 08:33:01;;;;;;;32.67;17.00;;;10.10;61.30;;;;;;5078353;28;20444;-76
2022/03/27 08:35:27;;;;;;;33.67;17.37;;;10.20;61.20;;;;;;5094601;28;20915;-74
2022/03/27 08:37:53;;;;;;;42.70;19.00;;;10.30;60.90;;;;;;5094181;28;20571;-75
2022/03/27 08:40:20;;;;;;;43.27;17.17;;;10.40;60.30;;;;;;5076346;28;20196;-76
2022/03/27 08:42:46;;;;;;;39.87;16.53;;;10.60;60.00;;;;;;5095197;28;20739;-74
2022/03/27 08:45:12;;;;;;;35.50;17.10;;;10.60;60.30;;;;;;5095534;28;20421;-77
2022/03/27 08:47:39;;;;;;;38.80;17.80;;;10.60;60.10;;;;;;5094974;28;20683;-75
2022/03/27 08:50:24;;;;;;;38.90;18.27;;;10.70;59.90;;;;;;5081249;28;20217;-74
2022/03/27 08:53:03;;;;;;;34.80;18.47;;;10.80;60.00;;;;;;5092208;28;20447;-75
2022/03/27 08:56:08;;;;;;;34.37;17.23;;;10.90;59.70;;;;;;5093863;28;20467;-73
2022/03/27 08:58:39;;;;;;;35.40;16.63;;;11.00;59.90;;;;;;5027052;28;20508;-76
2022/03/27 09:01:06;;;;;;;30.83;15.80;;;11.10;59.60;;;;;;5030999;28;20982;-75
2022/03/27 09:03:33;;;;;;;32.03;15.37;;;11.40;58.90;;;;;;5026516;28;20464;-74
2022/03/27 09:06:00;;;;;;;81.73;39.27;;;11.50;58.70;;;;;;5014803;28;20471;-75
2022/03/27 09:08:26;;;;;;;37.80;17.17;;;11.70;58.40;;;;;;5019676;28;21012;-75
2022/03/27 09:10:52;;;;;;;41.87;18.37;;;12.00;57.40;;;;;;5016273;28;20931;-74
2022/03/27 09:13:19;;;;;;;31.77;16.60;;;12.10;57.20;;;;;;5016236;28;20464;-74
2022/03/27 09:15:55;;;;;;;39.80;16.50;;;12.30;56.40;;;;;;5009561;28;20432;-75
2022/03/27 09:18:21;;;;;;;37.37;15.87;;;12.50;56.10;;;;;;4997507;28;21289;-74
2022/03/27 09:20:50;;;;;;;32.57;14.90;;;12.60;56.00;;;;;;5009541;28;20425;-75
2022/03/27 09:23:21;;;;;;;35.57;16.60;;;12.70;55.40;;;;;;5017126;28;20228;-77
2022/03/27 09:26:09;;;;;;;50.27;24.87;;;12.80;55.30;;;;;;5015240;28;20428;-75
2022/03/27 09:28:36;;;;;;;46.40;22.10;;;13.00;54.60;;;;;;5018340;28;20508;-74
2022/03/27 09:31:14;;;;;;;34.10;16.57;;;13.10;54.60;;;;;;5012668;28;20499;-75
2022/03/27 09:34:09;;;;;;;29.40;15.23;;;13.20;53.80;;;;;;5091459;28;20978;-76
2022/03/27 09:36:42;;;;;;;29.73;14.57;;;13.30;53.70;;;;;;4986858;28;20535;-74
2022/03/27 09:39:16;;;;;;;28.87;14.80;;;13.40;53.20;;;;;;4993556;28;20584;-76
2022/03/27 09:41:54;;;;;;;35.20;15.90;;;13.50;53.30;;;;;;4993942;28;20449;-77
2022/03/27 09:44:42;;;;;;;32.83;15.63;;;13.60;53.00;;;;;;4997084;28;20860;-76
2022/03/27 09:47:11;;;;;;;32.00;14.50;;;13.70;52.90;;;;;;4994345;28;20485;-74
2022/03/27 09:49:42;;;;;;;26.20;13.63;;;13.80;52.80;;;;;;4992063;28;20558;-76
2022/03/27 09:52:24;;;;;;;47.47;21.53;;;13.90;52.20;;;;;;4996332;28;21000;-77
2022/03/27 09:54:56;;;;;;;35.43;14.30;;;14.00;51.80;;;;;;4994595;28;20447;-76
2022/03/27 09:57:28;;;;;;;36.10;14.73;;;14.00;51.80;;;;;;4997515;28;20564;-77
2022/03/27 10:00:15;;;;;;;30.80;14.43;;;14.10;51.70;;;;;;5000768;28;20434;-76
2022/03/27 10:02:43;;;;;;;29.20;14.70;;;14.20;51.70;;;;;;4993299;28;20549;-75
2022/03/27 10:05:11;;;;;;;31.40;14.50;;;14.30;51.20;;;;;;4989264;28;20444;-76
2022/03/27 10:07:36;;;;;;;35.27;14.20;;;14.40;50.90;;;;;;4993623;28;20474;-74
2022/03/27 10:10:07;;;;;;;33.57;13.40;;;14.50;50.60;;;;;;4991929;28;20441;-75
2022/03/27 10:12:35;;;;;;;27.47;13.80;;;14.60;50.20;;;;;;5026091;28;20212;-74
2022/03/27 10:15:04;;;;;;;30.30;13.53;;;14.80;50.20;;;;;;5090606;28;20471;-76
2022/03/27 10:17:33;;;;;;;25.10;13.50;;;14.90;49.70;;;;;;5088720;28;20434;-75
2022/03/27 10:20:07;;;;;;;31.13;13.80;;;14.90;49.40;;;;;;5090587;28;20952;-75
2022/03/27 10:22:46;;;;;;;31.00;12.50;;;15.00;49.40;;;;;;5092307;28;20862;-77
2022/03/27 10:25:15;;;;;;;31.13;13.63;;;15.10;49.30;;;;;;5087097;28;20449;-78
2022/03/27 10:27:43;;;;;;;28.23;13.27;;;15.30;48.90;;;;;;5106402;28;20557;-76
2022/03/27 10:30:11;;;;;;;31.17;13.63;;;15.30;48.30;;;;;;5105208;28;20449;-77
2022/03/27 10:32:38;;;;;;;31.63;13.20;;;15.40;48.60;;;;;;5074373;28;20437;-77
2022/03/27 10:35:16;;;;;;;26.43;12.40;;;15.40;48.70;;;;;;5092937;28;20424;-75
2022/03/27 10:38:01;;;;;;;29.37;13.63;;;15.50;48.20;;;;;;5074865;28;20440;-77
2022/03/27 10:40:32;;;;;;;33.07;13.23;;;15.60;48.10;;;;;;5087962;28;21005;-77
2022/03/27 10:43:15;;;;;;;35.00;13.60;;;15.70;47.50;;;;;;5092348;28;20542;-77
2022/03/27 10:45:41;;;;;;;30.10;13.40;;;15.90;47.40;;;;;;5092021;28;20421;-77
2022/03/27 10:48:16;;;;;;;29.97;14.20;;;16.10;46.50;;;;;;5091894;28;20816;-75
2022/03/27 10:50:50;;;;;;;35.53;13.10;;;16.40;46.10;;;;;;5091143;28;20178;-74
2022/03/27 10:53:16;;;;;;;27.87;13.70;;;16.90;45.40;;;;;;5090180;28;20550;-74
2022/03/27 10:55:47;;;;;;;30.13;13.37;;;17.30;44.10;;;;;;5089804;28;20413;-75
2022/03/27 10:58:35;;;;;;;31.47;14.60;;;17.40;43.70;;;;;;5089104;28;20593;-75
2022/03/27 11:01:04;;;;;;;32.13;14.53;;;17.70;43.70;;;;;;5089549;28;20990;-74
2022/03/27 11:03:46;;;;;;;25.83;12.37;;;17.90;42.70;;;;;;5089576;28;20819;-76
2022/03/27 11:06:28;;;;;;;29.63;12.70;;;18.30;42.20;;;;;;5090352;28;20421;-76
2022/03/27 11:08:56;;;;;;;30.70;14.63;;;18.60;41.20;;;;;;5085421;28;20476;-75
2022/03/27 11:11:34;;;;;;;39.80;12.97;;;18.60;40.70;;;;;;5090065;28;20414;-75
2022/03/27 11:14:09;;;;;;;26.57;12.20;;;18.70;40.60;;;;;;5090603;28;20479;-77
2022/03/27 11:17:07;;;;;;;22.37;12.37;;;18.90;40.00;;;;;;5088496;28;20424;-78
2022/03/27 11:19:59;;;;;;;23.70;11.93;;;19.40;38.60;;;;;;5084927;28;20514;-77
2022/03/27 11:22:51;;;;;;;27.63;13.43;;;19.90;38.20;;;;;;5078247;28;20465;-76
2022/03/27 11:25:37;;;;;;;28.33;12.97;;;20.30;37.90;;;;;;5088955;28;20434;-77
2022/03/27 11:28:03;;;;;;;33.40;15.20;;;20.70;36.30;;;;;;5090152;28;20475;-77
2022/03/27 11:30:30;;;;;;;27.83;12.30;;;20.40;36.20;;;;;;5092344;28;20838;-78
2022/03/27 11:33:15;;;;;;;28.60;13.13;;;19.90;36.70;;;;;;5092755;28;20576;-75
2022/03/27 11:35:42;;;;;;;23.30;11.90;;;19.70;36.70;;;;;;5086167;28;20417;-77
2022/03/27 11:38:25;;;;;;;27.20;12.80;;;19.50;36.70;;;;;;5071919;28;20478;-77
2022/03/27 11:40:52;;;;;;;27.87;13.30;;;19.30;36.80;;;;;;5091602;28;20442;-78
2022/03/27 11:43:34;;;;;;;27.20;11.03;;;19.30;36.70;;;;;;5096066;28;21011;-77
2022/03/27 11:46:02;;;;;;;23.07;11.37;;;19.70;36.40;;;;;;5096095;28;20418;-77
2022/03/27 11:48:28;;;;;;;22.73;11.30;;;20.10;35.50;;;;;;5095746;28;20504;-77
2022/03/27 11:50:54;;;;;;;26.83;11.37;;;20.50;35.30;;;;;;5096415;28;20971;-75
2022/03/27 11:53:34;;;;;;;24.43;10.70;;;20.70;33.30;;;;;;5096267;28;20443;-77
2022/03/27 11:56:11;;;;;;;28.60;11.40;;;20.50;32.80;;;;;;5079296;28;20453;-78
2022/03/27 11:58:38;;;;;;;31.90;11.37;;;19.90;32.90;;;;;;5095744;28;20497;-76
2022/03/27 12:01:08;;;;;;;24.50;10.93;;;19.70;33.20;;;;;;5083140;28;20426;-77
2022/03/27 12:03:35;;;;;;;20.93;10.53;;;19.70;33.30;;;;;;5097681;28;20502;-78
2022/03/27 12:06:09;;;;;;;24.00;10.63;;;19.90;33.20;;;;;;5081984;28;20426;-77
2022/03/27 12:08:40;;;;;;;25.83;10.17;;;20.30;32.50;;;;;;5093121;28;21248;-77
2022/03/27 12:11:07;;;;;;;16.47;9.80;;;20.30;31.30;;;;;;5096024;28;20993;-76
2022/03/27 12:13:43;;;;;;;22.00;9.57;;;19.90;31.50;;;;;;5097595;28;20456;-77
2022/03/27 12:16:16;;;;;;;22.50;10.00;;;20.10;31.70;;;;;;5099325;28;20430;-76
2022/03/27 12:18:47;;;;;;;20.97;9.97;;;20.30;30.90;;;;;;5099287;28;20444;-76
2022/03/27 12:21:14;;;;;;;22.37;10.10;;;20.60;30.50;;;;;;5093608;28;20424;-78
2022/03/27 12:23:42;;;;;;;23.50;10.03;;;20.80;29.60;;;;;;5093354;28;20438;-77
2022/03/27 12:32:12;;;;;;;20.90;9.90;;;20.70;29.10;;;;;;5090832;28;20470;-77
2022/03/27 12:34:47;;;;;;;25.60;9.33;;;20.60;29.30;;;;;;5093300;28;20422;-77
2022/03/27 12:37:16;;;;;;;20.00;9.50;;;20.80;29.40;;;;;;5094644;28;20439;-76
2022/03/27 12:39:41;;;;;;;21.17;9.53;;;21.00;29.10;;;;;;5096496;28;20722;-76
2022/03/27 12:42:35;;;;;;;25.27;11.17;;;21.20;28.70;;;;;;5103969;28;20443;-77
2022/03/27 12:45:13;;;;;;;17.03;8.80;;;21.10;28.30;;;;;;5113578;28;20186;-77
2022/03/27 12:47:44;;;;;;;17.90;9.20;;;20.90;28.70;;;;;;5090456;28;20457;-77
2022/03/27 12:50:13;;;;;;;18.97;9.43;;;21.20;28.50;;;;;;5097384;28;20435;-80
2022/03/27 12:52:53;;;;;;;17.70;8.63;;;21.50;27.70;;;;;;5080781;28;20444;-78
2022/03/27 12:55:19;;;;;;;19.13;8.90;;;21.50;27.90;;;;;;5094705;28;20434;-76
2022/03/27 12:57:54;;;;;;;20.27;8.83;;;21.50;27.90;;;;;;5094465;28;20420;-76